createdAt,value
2022-08-09T00:00:46.081Z,86.55
2022-08-09T00:01:43.034Z,86.91
2022-08-09T00:02:49.841Z,87.18
2022-08-09T00:04:05.984Z,86.91
2022-08-09T00:04:43.528Z,87.36
2022-08-09T00:06:16.457Z,86.82
2022-08-09T00:06:44.249Z,86.20
2022-08-09T00:07:44.907Z,85.84
2022-08-09T00:08:42.480Z,87.54
2022-08-09T00:09:42.470Z,87.91
2022-08-09T00:10:42.461Z,87.72
2022-08-09T00:12:02.839Z,88.19
2022-08-09T00:12:43.428Z,87.54
2022-08-09T00:13:42.419Z,85.84
2022-08-09T00:14:42.401Z,84.21
2022-08-09T00:15:59.389Z,82.80
2022-08-09T00:16:43.375Z,81.44
2022-08-09T00:18:07.637Z,79.36
2022-08-09T00:18:43.345Z,77.75
2022-08-09T00:19:42.328Z,76.47
2022-08-09T00:20:49.683Z,75.24
2022-08-09T00:21:56.301Z,74.18
2022-08-09T00:22:47.058Z,72.64
2022-08-09T00:23:57.051Z,71.41
2022-08-09T00:24:43.281Z,70.57
2022-08-09T00:25:42.256Z,69.63
2022-08-09T00:26:42.251Z,69.34
2022-08-09T00:27:43.102Z,69.34
2022-08-09T00:28:42.248Z,68.78
2022-08-09T00:30:23.575Z,68.95
2022-08-09T00:30:43.212Z,69.34
2022-08-09T00:31:58.349Z,69.52
2022-08-09T00:32:43.173Z,69.57
2022-08-09T00:33:50.634Z,70.10
2022-08-09T00:34:51.942Z,68.67
2022-08-09T00:35:43.791Z,67.72
2022-08-09T00:36:42.134Z,65.61
2022-08-09T00:37:42.123Z,63.62
2022-08-09T00:38:42.133Z,61.44
2022-08-09T00:40:12.147Z,61.08
2022-08-09T00:40:52.746Z,59.36
2022-08-09T00:44:14.088Z,55.29
2022-08-09T00:44:19.479Z,55.99
2022-08-09T00:44:19.798Z,57.25
2022-08-09T00:44:43.034Z,54.40
2022-08-09T00:45:50.525Z,53.57
2022-08-09T00:46:57.415Z,52.66
2022-08-09T00:47:43.006Z,52.47
2022-08-09T00:48:42.011Z,50.94
2022-08-09T00:49:43.815Z,48.56
2022-08-09T00:50:42.966Z,47.43
2022-08-09T00:51:54.628Z,46.75
2022-08-09T00:52:42.954Z,46.34
2022-08-09T00:53:41.930Z,45.98
2022-08-09T00:54:41.937Z,46.64
2022-08-09T00:56:05.340Z,46.80
2022-08-09T00:56:42.898Z,47.30
2022-08-09T00:57:41.884Z,48.42
2022-08-09T00:58:41.878Z,48.00
2022-08-09T00:59:46.478Z,48.50
2022-08-09T01:00:41.922Z,49.50
2022-08-09T01:01:44.351Z,49.44
2022-08-09T01:02:41.839Z,49.88
2022-08-09T01:03:46.357Z,49.91
2022-08-09T01:04:41.797Z,49.47
2022-08-09T01:05:46.385Z,49.70
2022-08-09T01:06:54.458Z,49.85
2022-08-09T01:08:00.121Z,50.78
2022-08-09T01:08:49.395Z,50.12
2022-08-09T01:09:42.739Z,50.51
2022-08-09T01:10:41.770Z,49.88
2022-08-09T01:11:41.724Z,50.42
2022-08-09T01:12:42.717Z,50.21
2022-08-09T01:13:58.850Z,50.09
2022-08-09T01:14:42.689Z,50.03
2022-08-09T01:15:52.033Z,50.00
2022-08-09T01:16:47.296Z,49.56
2022-08-09T01:17:42.659Z,49.27
2022-08-09T01:18:41.649Z,48.84
2022-08-09T01:20:01.703Z,48.36
2022-08-09T01:20:42.618Z,48.53
2022-08-09T01:21:45.068Z,48.87
2022-08-09T01:22:42.603Z,48.84
2022-08-09T01:24:02.180Z,48.14
2022-08-09T01:24:43.967Z,47.70
2022-08-09T01:25:42.561Z,47.54
2022-08-09T01:26:42.571Z,47.01
2022-08-09T01:27:41.531Z,46.28
2022-08-09T01:28:41.536Z,46.08
2022-08-09T01:29:55.136Z,45.88
2022-08-09T01:30:51.572Z,45.34
2022-08-09T01:32:29.782Z,44.76
2022-08-09T01:32:45.392Z,44.24
2022-08-09T01:33:41.483Z,43.51
2022-08-09T01:34:41.468Z,42.76
2022-08-09T01:35:42.392Z,42.20
2022-08-09T01:36:41.440Z,41.62
2022-08-09T01:37:42.822Z,41.29
2022-08-09T01:38:46.417Z,40.89
2022-08-09T01:39:41.459Z,40.49
2022-08-09T01:40:41.389Z,39.92
2022-08-09T01:41:53.791Z,39.80
2022-08-09T01:42:42.383Z,39.69
2022-08-09T01:43:50.042Z,39.51
2022-08-09T01:44:42.347Z,38.96
2022-08-09T01:45:45.985Z,38.63
2022-08-09T01:46:42.391Z,37.97
2022-08-09T01:47:44.507Z,37.40
2022-08-09T01:48:41.316Z,36.55
2022-08-09T01:49:41.280Z,35.96
2022-08-09T01:50:42.274Z,35.47
2022-08-09T01:51:44.377Z,35.30
2022-08-09T01:52:41.491Z,35.24
2022-08-09T01:53:41.904Z,35.15
2022-08-09T01:54:41.246Z,35.42
2022-08-09T01:55:41.217Z,35.99
2022-08-09T01:56:41.204Z,36.30
2022-08-09T01:57:45.720Z,36.55
2022-08-09T01:58:42.199Z,37.00
2022-08-09T01:59:51.733Z,37.40
2022-08-09T02:00:42.231Z,38.01
2022-08-09T02:01:59.208Z,38.67
2022-08-09T02:02:42.127Z,38.99
2022-08-09T02:03:41.139Z,39.51
2022-08-09T02:04:45.541Z,39.88
2022-08-09T02:06:03.285Z,40.42
2022-08-09T02:06:45.311Z,40.69
2022-08-09T02:08:38.849Z,40.69
2022-08-09T02:08:58.807Z,40.42
2022-08-09T02:09:42.883Z,40.61
2022-08-09T02:10:41.054Z,40.30
2022-08-09T02:11:43.784Z,39.96
2022-08-09T02:12:41.025Z,39.73
2022-08-09T02:13:41.016Z,39.17
2022-08-09T02:14:41.008Z,38.63
2022-08-09T02:15:49.283Z,38.28
2022-08-09T02:16:52.972Z,37.70
2022-08-09T02:18:00.292Z,37.70
2022-08-09T02:18:42.773Z,37.63
2022-08-09T02:19:43.347Z,37.56
2022-08-09T02:20:40.917Z,37.63
2022-08-09T02:21:40.920Z,37.83
2022-08-09T02:22:41.057Z,37.87
2022-08-09T02:23:43.116Z,37.80
2022-08-09T02:24:40.878Z,38.25
2022-08-09T02:25:42.018Z,38.28
2022-08-09T02:26:40.861Z,38.28
2022-08-09T02:27:57.486Z,38.71
2022-08-09T02:28:41.819Z,39.03
2022-08-09T02:29:40.811Z,39.32
2022-08-09T02:30:41.494Z,39.69
2022-08-09T02:31:40.809Z,40.26
2022-08-09T02:32:40.793Z,40.42
2022-08-09T02:34:07.276Z,40.46
2022-08-09T02:34:51.651Z,40.69
2022-08-09T02:36:02.119Z,41.13
2022-08-09T02:36:42.086Z,41.33
2022-08-09T02:37:40.720Z,41.70
2022-08-09T02:38:40.713Z,42.03
2022-08-09T02:39:42.846Z,42.24
2022-08-09T02:40:40.711Z,42.63
2022-08-09T02:41:40.687Z,43.24
2022-08-09T02:42:40.684Z,43.78
2022-08-09T02:43:42.565Z,44.15
2022-08-09T02:44:41.640Z,44.10
2022-08-09T02:45:40.634Z,43.92
2022-08-09T02:46:40.616Z,44.06
2022-08-09T02:47:57.326Z,43.74
2022-08-09T02:48:46.117Z,43.60
2022-08-09T02:49:41.323Z,43.74
2022-08-09T02:50:40.571Z,44.06
2022-08-09T02:51:40.869Z,44.71
2022-08-09T02:52:40.553Z,44.81
2022-08-09T02:53:43.122Z,45.00
2022-08-09T02:54:54.537Z,44.95
2022-08-09T02:55:53.775Z,44.90
2022-08-09T02:56:41.494Z,45.29
2022-08-09T02:58:00.310Z,45.44
2022-08-09T02:58:41.475Z,45.19
2022-08-09T02:59:40.464Z,44.90
2022-08-09T03:00:57.731Z,43.83
2022-08-09T03:02:05.745Z,42.63
2022-08-09T03:02:58.333Z,41.21
2022-08-09T03:04:17.415Z,39.73
2022-08-09T03:04:41.402Z,38.92
2022-08-09T03:05:40.413Z,37.87
2022-08-09T03:06:40.386Z,36.94
2022-08-09T03:07:40.366Z,35.72
2022-08-09T03:08:40.384Z,35.09
2022-08-09T03:09:42.816Z,34.63
2022-08-09T03:10:40.336Z,34.15
2022-08-09T03:12:10.443Z,33.82
2022-08-09T03:12:41.306Z,33.55
2022-08-09T03:13:43.805Z,33.08
2022-08-09T03:14:41.318Z,32.74
2022-08-09T03:16:05.763Z,32.34
2022-08-09T03:16:47.496Z,32.02
2022-08-09T03:17:41.247Z,31.14
2022-08-09T03:18:40.235Z,29.30
2022-08-09T03:19:59.711Z,27.68
2022-08-09T03:20:41.216Z,26.41
2022-08-09T03:21:40.199Z,25.36
2022-08-09T03:22:42.280Z,24.65
2022-08-09T03:23:40.179Z,24.42
2022-08-09T03:24:51.087Z,24.38
2022-08-09T03:26:03.234Z,24.15
2022-08-09T03:26:44.966Z,24.10
2022-08-09T03:27:45.209Z,23.53
2022-08-09T03:28:43.597Z,22.87
2022-08-09T03:29:57.373Z,22.19
2022-08-09T03:30:41.108Z,22.24
2022-08-09T03:31:42.697Z,22.38
2022-08-09T03:32:41.071Z,22.97
2022-08-09T03:33:53.429Z,23.73
2022-08-09T03:34:41.079Z,24.17
2022-08-09T03:36:11.761Z,24.53
2022-08-09T03:36:41.036Z,24.75
2022-08-09T03:37:56.662Z,24.90
2022-08-09T03:38:41.874Z,24.78
2022-08-09T03:39:40.051Z,24.69
2022-08-09T03:40:41.003Z,24.68
2022-08-09T03:41:45.898Z,24.87
2022-08-09T03:42:43.166Z,25.15
2022-08-09T03:43:39.969Z,25.15
2022-08-09T03:44:39.935Z,24.75
2022-08-09T03:46:05.254Z,23.73
2022-08-09T03:46:40.902Z,22.74
2022-08-09T03:47:46.261Z,21.73
2022-08-09T03:48:42.944Z,20.66
2022-08-09T03:49:40.869Z,19.88
2022-08-09T03:50:41.130Z,19.16
2022-08-09T03:51:55.588Z,18.51
2022-08-09T03:52:41.759Z,17.90
2022-08-09T03:53:39.841Z,17.38
2022-08-09T03:54:39.812Z,16.78
2022-08-09T03:55:40.722Z,16.29
2022-08-09T03:56:41.103Z,15.92
2022-08-09T03:57:53.409Z,15.53
2022-08-09T03:58:40.762Z,15.10
2022-08-09T03:59:43.256Z,14.69
2022-08-09T04:00:40.767Z,14.38
2022-08-09T04:01:39.738Z,14.18
2022-08-09T04:02:39.722Z,13.88
2022-08-09T04:03:46.189Z,13.60
2022-08-09T04:04:40.712Z,13.48
2022-08-09T04:05:40.734Z,13.28
2022-08-09T04:06:39.671Z,13.20
2022-08-09T04:07:52.640Z,13.18
2022-08-09T04:08:40.674Z,13.41
2022-08-09T04:09:44.416Z,13.48
2022-08-09T04:10:40.647Z,13.28
2022-08-09T04:11:39.613Z,12.93
2022-08-09T04:12:39.603Z,12.58
2022-08-09T04:14:36.666Z,12.27
2022-08-09T04:15:00.948Z,12.11
2022-08-09T04:16:17.623Z,12.01
2022-08-09T04:16:40.558Z,12.12
2022-08-09T04:17:39.562Z,12.23
2022-08-09T04:18:39.536Z,12.25
2022-08-09T04:19:50.837Z,12.25
2022-08-09T04:20:40.518Z,12.27
2022-08-09T04:21:40.279Z,12.27
2022-08-09T04:22:41.264Z,12.27
2022-08-09T04:23:39.473Z,12.26
2022-08-09T04:24:39.460Z,12.23
2022-08-09T04:25:39.449Z,12.26
2022-08-09T04:26:39.490Z,12.25
2022-08-09T04:27:39.419Z,12.22
2022-08-09T04:28:42.334Z,12.22
2022-08-09T04:29:40.411Z,12.32
2022-08-09T04:30:42.758Z,12.55
2022-08-09T04:31:46.685Z,12.70
2022-08-09T04:32:40.546Z,13.05
2022-08-09T04:33:53.144Z,13.36
2022-08-09T04:34:40.356Z,13.57
2022-08-09T04:35:40.338Z,13.75
2022-08-09T04:36:42.436Z,13.92
2022-08-09T04:37:45.789Z,14.02
2022-08-09T04:38:40.291Z,13.92
2022-08-09T04:39:40.723Z,13.79
2022-08-09T04:40:39.300Z,13.72
2022-08-09T04:41:43.830Z,13.69
2022-08-09T04:42:39.250Z,13.53
2022-08-09T04:43:53.966Z,13.44
2022-08-09T04:44:40.221Z,13.39
2022-08-09T04:45:53.593Z,13.23
2022-08-09T04:46:57.374Z,13.25
2022-08-09T04:47:58.778Z,13.49
2022-08-09T04:48:40.172Z,13.69
2022-08-09T04:49:53.072Z,13.68
2022-08-09T04:50:40.156Z,13.65
2022-08-09T04:51:39.159Z,13.64
2022-08-09T04:52:39.132Z,13.62
2022-08-09T04:53:39.111Z,13.45
2022-08-09T04:54:39.109Z,13.19
2022-08-09T04:55:43.601Z,13.00
2022-08-09T04:56:40.101Z,12.85
2022-08-09T04:57:53.737Z,12.84
2022-08-09T04:58:40.058Z,12.85
2022-08-09T04:59:39.053Z,13.03
2022-08-09T05:00:39.020Z,13.19
2022-08-09T05:01:39.027Z,13.27
2022-08-09T05:02:39.021Z,13.23
2022-08-09T05:03:42.260Z,13.26
2022-08-09T05:04:40.051Z,13.13
2022-08-09T05:05:51.782Z,13.05
2022-08-09T05:06:39.966Z,13.10
2022-08-09T05:07:38.973Z,13.25
2022-08-09T05:08:38.939Z,13.23
2022-08-09T05:09:42.203Z,13.03
2022-08-09T05:10:39.931Z,12.95
2022-08-09T05:11:38.915Z,12.92
2022-08-09T05:12:39.010Z,13.14
2022-08-09T05:13:39.198Z,13.41
2022-08-09T05:14:38.868Z,13.73
2022-08-09T05:15:47.705Z,14.03
2022-08-09T05:16:43.424Z,14.44
2022-08-09T05:18:42.521Z,14.91
2022-08-09T05:18:58.577Z,15.28
2022-08-09T05:19:45.996Z,15.50
2022-08-09T05:20:39.807Z,15.73
2022-08-09T05:21:46.970Z,16.26
2022-08-09T05:23:53.597Z,16.64
2022-08-09T05:23:53.658Z,16.73
2022-08-09T05:24:39.759Z,17.08
2022-08-09T05:25:38.743Z,17.23
2022-08-09T05:26:46.239Z,17.57
2022-08-09T05:27:45.423Z,17.78
2022-08-09T05:28:39.722Z,17.89
2022-08-09T05:29:38.697Z,18.48
2022-08-09T05:30:38.677Z,18.78
2022-08-09T05:31:46.779Z,19.25
2022-08-09T05:32:39.643Z,19.96
2022-08-09T05:33:42.473Z,20.56
2022-08-09T05:34:38.631Z,21.01
2022-08-09T05:35:49.895Z,21.64
2022-08-09T05:36:39.609Z,22.05
2022-08-09T05:37:47.649Z,22.89
2022-08-09T05:38:39.608Z,23.45
2022-08-09T05:39:43.775Z,23.40
2022-08-09T05:40:38.563Z,23.59
2022-08-09T05:41:38.551Z,24.59
2022-08-09T05:42:38.543Z,25.42
2022-08-09T05:43:38.540Z,25.99
2022-08-09T05:44:39.521Z,26.97
2022-08-09T05:45:52.773Z,28.16
2022-08-09T05:46:39.501Z,28.82
2022-08-09T05:47:45.553Z,29.50
2022-08-09T05:48:39.485Z,29.84
2022-08-09T05:50:30.348Z,30.47
2022-08-09T05:50:51.202Z,30.84
2022-08-09T05:51:43.226Z,31.23
2022-08-09T05:52:39.426Z,31.75
2022-08-09T05:53:51.629Z,30.20
2022-08-09T05:54:39.402Z,30.01
2022-08-09T05:55:38.398Z,31.07
2022-08-09T05:56:38.383Z,32.14
2022-08-09T05:57:51.037Z,33.13
2022-08-09T05:58:39.364Z,34.01
2022-08-09T05:59:38.352Z,34.83
2022-08-09T06:00:38.325Z,35.99
2022-08-09T06:01:42.652Z,36.87
2022-08-09T06:02:38.350Z,37.70
2022-08-09T06:03:44.057Z,38.71
2022-08-09T06:04:44.760Z,39.73
2022-08-09T06:05:54.672Z,40.53
2022-08-09T06:06:41.683Z,41.29
2022-08-09T06:07:39.248Z,42.41
2022-08-09T06:08:38.267Z,42.93
2022-08-09T06:09:54.306Z,43.78
2022-08-09T06:10:39.204Z,44.62
2022-08-09T06:11:41.068Z,45.05
2022-08-09T06:12:39.197Z,46.34
2022-08-09T06:13:38.205Z,47.01
2022-08-09T06:14:38.166Z,47.38
2022-08-09T06:15:38.167Z,47.51
2022-08-09T06:16:38.147Z,48.50
2022-08-09T06:17:39.928Z,49.47
2022-08-09T06:18:38.147Z,50.24
2022-08-09T06:19:38.123Z,50.97
2022-08-09T06:20:38.111Z,52.47
2022-08-09T06:21:39.661Z,52.76
2022-08-09T06:22:39.080Z,53.67
2022-08-09T06:23:57.387Z,54.97
2022-08-09T06:24:39.069Z,57.61
2022-08-09T06:25:38.046Z,58.41
2022-08-09T06:26:38.028Z,59.36
2022-08-09T06:27:42.239Z,59.57
2022-08-09T06:28:38.026Z,60.08
2022-08-09T06:29:48.170Z,61.35
2022-08-09T06:30:38.982Z,62.96
2022-08-09T06:31:39.235Z,64.06
2022-08-09T06:32:59.428Z,64.55
2022-08-09T06:33:41.304Z,66.02
2022-08-09T06:34:37.950Z,67.08
2022-08-09T06:35:56.783Z,68.44
2022-08-09T06:36:43.878Z,70.33
2022-08-09T06:37:53.115Z,70.45
2022-08-09T06:38:38.898Z,71.35
2022-08-09T06:39:57.861Z,73.92
2022-08-09T06:40:38.927Z,76.20
2022-08-09T06:42:07.714Z,77.75
2022-08-09T06:42:45.135Z,78.99
2022-08-09T06:43:39.744Z,79.59
2022-08-09T06:44:37.900Z,79.59
2022-08-09T06:46:06.666Z,80.27
2022-08-09T06:46:40.219Z,81.12
2022-08-09T06:47:39.771Z,80.58
2022-08-09T06:48:42.698Z,80.19
2022-08-09T06:50:11.935Z,76.96
2022-08-09T06:50:38.782Z,68.55
2022-08-09T06:51:39.076Z,66.54
2022-08-09T06:52:37.737Z,65.15
2022-08-09T06:53:38.187Z,65.36
2022-08-09T06:54:37.726Z,67.67
2022-08-09T06:55:37.707Z,70.15
2022-08-09T06:56:37.687Z,73.66
2022-08-09T06:58:01.507Z,76.33
2022-08-09T07:00:47.384Z,79.14
2022-08-09T07:00:49.734Z,81.99
2022-08-09T07:00:50.843Z,84.21
2022-08-09T07:01:54.610Z,86.55
2022-08-09T07:02:38.691Z,88.65
2022-08-09T07:03:39.710Z,90.46
2022-08-09T07:04:38.590Z,90.85
2022-08-09T07:06:02.638Z,91.15
2022-08-09T07:06:38.590Z,95.18
2022-08-09T07:08:00.694Z,95.04
2022-08-09T07:08:39.622Z,96.51
2022-08-09T07:09:57.374Z,96.02
2022-08-09T07:10:38.552Z,93.79
2022-08-09T07:11:45.461Z,90.46
2022-08-09T07:12:41.275Z,89.12
2022-08-09T07:13:45.217Z,89.60
2022-08-09T07:14:38.482Z,93.27
2022-08-09T07:16:38.506Z,94.88
2022-08-09T07:16:42.610Z,97.63
2022-08-09T07:17:39.822Z,100.49
2022-08-09T07:18:38.705Z,101.59
2022-08-09T07:19:37.433Z,102.20
2022-08-09T07:20:39.568Z,105.34
2022-08-09T07:21:38.418Z,105.01
2022-08-09T07:22:42.112Z,105.41
2022-08-09T07:23:56.663Z,107.63
2022-08-09T07:24:40.113Z,110.10
2022-08-09T07:25:38.917Z,111.05
2022-08-09T07:26:38.358Z,111.05
2022-08-09T07:27:42.959Z,111.12
2022-08-09T07:28:38.327Z,110.83
2022-08-09T07:29:42.966Z,109.74
2022-08-09T07:30:37.306Z,112.61
2022-08-09T07:31:38.597Z,110.97
2022-08-09T07:32:38.471Z,102.64
2022-08-09T07:33:52.920Z,100.37
2022-08-09T07:34:38.275Z,103.14
2022-08-09T07:35:39.679Z,105.47
2022-08-09T07:36:38.228Z,109.96
2022-08-09T07:37:43.215Z,113.90
2022-08-09T07:38:38.208Z,115.63
2022-08-09T07:39:41.040Z,119.58
2022-08-09T07:41:00.908Z,121.83
2022-08-09T07:41:38.603Z,122.72
2022-08-09T07:42:37.170Z,127.08
2022-08-09T07:43:41.150Z,129.63
2022-08-09T07:44:53.117Z,132.07
2022-08-09T07:45:40.559Z,132.59
2022-08-09T07:46:37.112Z,133.43
2022-08-09T07:47:39.575Z,133.75
2022-08-09T07:48:39.158Z,134.29
2022-08-09T07:50:04.501Z,125.65
2022-08-09T07:50:38.073Z,125.09
2022-08-09T07:52:05.448Z,126.98
2022-08-09T07:52:38.048Z,130.23
2022-08-09T07:54:07.594Z,135.04
2022-08-09T07:54:38.027Z,136.35
2022-08-09T07:55:41.340Z,137.58
2022-08-09T07:56:45.018Z,138.26
2022-08-09T07:57:37.999Z,140.93
2022-08-09T07:58:38.004Z,144.93
2022-08-09T07:59:51.924Z,149.71
2022-08-09T08:00:38.106Z,153.12
2022-08-09T08:01:38.003Z,155.82
2022-08-09T08:02:42.405Z,157.71
2022-08-09T08:03:37.915Z,158.76
2022-08-09T08:04:37.332Z,159.51
2022-08-09T08:05:39.149Z,159.97
2022-08-09T08:06:47.571Z,163.07
2022-08-09T08:08:44.478Z,165.48
2022-08-09T08:09:02.258Z,167.46
2022-08-09T08:09:38.664Z,171.03
2022-08-09T08:10:37.851Z,173.50
2022-08-09T08:12:12.018Z,176.42
2022-08-09T08:12:43.384Z,177.35
2022-08-09T08:13:41.297Z,176.79
2022-08-09T08:14:37.809Z,176.97
2022-08-09T08:15:39.296Z,177.35
2022-08-09T08:16:36.806Z,180.20
2022-08-09T08:17:53.090Z,181.17
2022-08-09T08:18:37.749Z,181.56
2022-08-09T08:19:36.749Z,181.17
2022-08-09T08:20:36.738Z,180.78
2022-08-09T08:21:39.460Z,183.54
2022-08-09T08:22:36.701Z,186.18
2022-08-09T08:23:36.692Z,188.62
2022-08-09T08:24:40.622Z,191.24
2022-08-09T08:25:40.425Z,191.13
2022-08-09T08:26:42.119Z,190.91
2022-08-09T08:27:40.444Z,194.96
2022-08-09T08:28:36.634Z,191.69
2022-08-09T08:29:39.574Z,188.41
2022-08-09T08:30:39.053Z,185.45
2022-08-09T08:31:39.615Z,187.02
2022-08-09T08:32:41.474Z,191.57
2022-08-09T08:33:52.094Z,194.16
2022-08-09T08:34:37.570Z,196.82
2022-08-09T08:35:52.910Z,200.89
2022-08-09T08:36:37.565Z,203.36
2022-08-09T08:37:41.467Z,204.11
2022-08-09T08:38:37.525Z,207.18
2022-08-09T08:39:39.829Z,211.15
2022-08-09T08:40:37.496Z,214.16
2022-08-09T08:41:50.714Z,218.26
2022-08-09T08:42:37.479Z,219.13
2022-08-09T08:43:36.460Z,217.98
2022-08-09T08:44:36.447Z,217.55
2022-08-09T08:45:37.629Z,218.70
2022-08-09T08:46:59.814Z,221.04
2022-08-09T08:47:38.526Z,216.12
2022-08-09T08:48:37.415Z,218.12
2022-08-09T08:49:47.388Z,215.98
2022-08-09T08:50:37.381Z,212.79
2022-08-09T08:51:40.246Z,212.10
2022-08-09T08:52:59.142Z,209.68
2022-08-09T08:53:37.551Z,208.23
2022-08-09T08:54:37.335Z,210.21
2022-08-09T08:55:36.321Z,217.69
2022-08-09T08:56:36.370Z,223.43
2022-08-09T08:57:37.553Z,226.33
2022-08-09T08:58:36.290Z,228.21
2022-08-09T08:59:46.626Z,232.05
2022-08-09T09:00:37.276Z,234.86
2022-08-09T09:01:51.917Z,238.76
2022-08-09T09:02:37.455Z,241.37
2022-08-09T09:03:37.965Z,244.77
2022-08-09T09:04:47.429Z,244.23
2022-08-09T09:05:58.767Z,246.96
2022-08-09T09:06:37.207Z,249.38
2022-08-09T09:07:36.763Z,251.66
2022-08-09T09:08:40.962Z,254.96
2022-08-09T09:09:58.443Z,262.04
2022-08-09T09:10:37.175Z,270.62
2022-08-09T09:11:38.486Z,277.90
2022-08-09T09:12:36.326Z,280.25
2022-08-09T09:13:50.250Z,282.89
2022-08-09T09:14:37.121Z,282.17
2022-08-09T09:15:36.100Z,279.78
2022-08-09T09:16:36.112Z,283.13
2022-08-09T09:17:49.363Z,281.21
2022-08-09T09:18:37.088Z,286.07
2022-08-09T09:19:41.271Z,292.66
2022-08-09T09:20:37.044Z,293.44
2022-08-09T09:21:43.297Z,297.40
2022-08-09T09:22:37.270Z,296.07
2022-08-09T09:23:37.978Z,291.63
2022-08-09T09:24:38.017Z,293.70
2022-08-09T09:26:01.189Z,292.40
2022-08-09T09:26:36.969Z,293.18
2022-08-09T09:28:06.626Z,296.60
2022-08-09T09:29:02.497Z,301.47
2022-08-09T09:30:08.480Z,309.37
2022-08-09T09:30:41.334Z,312.58
2022-08-09T09:32:03.571Z,314.07
2022-08-09T09:32:37.171Z,311.70
2022-08-09T09:33:44.352Z,320.15
2022-08-09T09:34:36.881Z,328.75
2022-08-09T09:35:35.873Z,337.47
2022-08-09T09:36:35.861Z,336.79
2022-08-09T09:37:35.842Z,333.05
2022-08-09T09:38:36.676Z,326.48
2022-08-09T09:39:42.767Z,320.46
2022-08-09T09:40:36.857Z,311.41
2022-08-09T09:41:49.716Z,319.53
2022-08-09T09:42:36.908Z,327.12
2022-08-09T09:43:41.206Z,334.40
2022-08-09T09:44:36.893Z,334.74
2022-08-09T09:45:57.052Z,337.47
2022-08-09T09:46:42.613Z,340.95
2022-08-09T09:47:47.897Z,347.04
2022-08-09T09:48:36.714Z,348.87
2022-08-09T09:50:13.717Z,359.89
2022-08-09T09:50:36.719Z,356.78
2022-08-09T09:51:38.391Z,357.16
2022-08-09T09:52:37.326Z,352.59
2022-08-09T09:53:57.542Z,356.78
2022-08-09T09:54:36.653Z,360.67
2022-08-09T09:55:35.658Z,362.65
2022-08-09T09:56:35.630Z,365.05
2022-08-09T09:58:02.411Z,368.72
2022-08-09T09:58:37.316Z,370.37
2022-08-09T09:59:35.824Z,370.79
2022-08-09T10:00:35.627Z,363.45
2022-08-09T10:01:37.980Z,366.27
2022-08-09T10:02:35.573Z,367.49
2022-08-09T10:03:35.590Z,369.54
2022-08-09T10:04:35.558Z,372.04
2022-08-09T10:06:03.310Z,369.54
2022-08-09T10:06:36.540Z,372.88
2022-08-09T10:07:35.500Z,367.90
2022-08-09T10:08:43.276Z,357.94
2022-08-09T10:09:36.468Z,357.55
2022-08-09T10:10:35.489Z,364.25
2022-08-09T10:12:00.243Z,365.86
2022-08-09T10:12:36.451Z,359.89
2022-08-09T10:13:43.105Z,369.13
2022-08-09T10:14:36.430Z,369.95
2022-08-09T10:16:09.175Z,368.72
2022-08-09T10:16:58.346Z,369.95
2022-08-09T10:17:55.151Z,369.95
2022-08-09T10:18:36.386Z,368.72
2022-08-09T10:19:35.372Z,377.43
2022-08-09T10:20:44.555Z,380.21
2022-08-09T10:21:36.342Z,377.22
2022-08-09T10:22:35.430Z,376.70
2022-08-09T10:23:35.314Z,375.84
2022-08-09T10:24:35.960Z,385.66
2022-08-09T10:26:07.374Z,390.60
2022-08-09T10:26:36.280Z,391.96
2022-08-09T10:27:38.574Z,395.19
2022-08-09T10:28:36.275Z,387.67
2022-08-09T10:30:49.490Z,390.37
2022-08-09T10:32:40.351Z,392.65
2022-08-09T10:34:09.005Z,393.11
2022-08-09T10:34:36.289Z,393.80
2022-08-09T10:35:35.189Z,390.82
2022-08-09T10:36:35.528Z,391.28
2022-08-09T10:37:38.351Z,387.44
2022-08-09T10:38:54.995Z,392.42
2022-08-09T10:39:40.952Z,398.00
2022-08-09T10:40:40.970Z,404.47
2022-08-09T10:41:36.118Z,405.45
2022-08-09T10:42:35.126Z,396.83
2022-08-09T10:43:44.408Z,396.36
2022-08-09T10:44:36.101Z,395.42
2022-08-09T10:45:35.644Z,380.21
2022-08-09T10:46:43.552Z,371.20
2022-08-09T10:48:19.450Z,382.59
2022-08-09T10:48:36.773Z,391.96
2022-08-09T10:49:50.211Z,389.92
2022-08-09T10:50:36.020Z,393.57
2022-08-09T10:51:41.001Z,394.96
2022-08-09T10:52:36.475Z,400.61
2022-08-09T10:53:38.070Z,397.77
2022-08-09T10:54:35.001Z,402.77
2022-08-09T10:55:49.202Z,407.91
2022-08-09T10:56:35.958Z,416.25
2022-08-09T10:57:36.283Z,419.11
2022-08-09T10:58:37.319Z,419.37
2022-08-09T10:59:55.417Z,423.87
2022-08-09T11:00:35.922Z,421.21
2022-08-09T11:03:10.673Z,416.77
2022-08-09T11:03:13.309Z,419.11
2022-08-09T11:03:49.795Z,423.60
2022-08-09T11:04:35.953Z,417.54
2022-08-09T11:05:34.923Z,410.40
2022-08-09T11:06:34.837Z,412.92
2022-08-09T11:07:57.121Z,413.43
2022-08-09T11:08:35.819Z,407.42
2022-08-09T11:09:37.343Z,415.22
2022-08-09T11:10:34.800Z,424.40
2022-08-09T11:11:34.807Z,431.49
2022-08-09T11:12:36.315Z,436.25
2022-08-09T11:13:50.085Z,444.04
2022-08-09T11:14:35.762Z,436.82
2022-08-09T11:15:38.351Z,436.82
2022-08-09T11:16:37.120Z,437.67
2022-08-09T11:17:34.717Z,442.28
2022-08-09T11:18:35.710Z,446.40
2022-08-09T11:20:10.599Z,453.33
2022-08-09T11:20:35.690Z,444.62
2022-08-09T11:21:34.682Z,430.93
2022-08-09T11:22:35.982Z,429.01
2022-08-09T11:23:34.650Z,427.64
2022-08-09T11:24:34.643Z,422.53
2022-08-09T11:25:44.633Z,426.83
2022-08-09T11:26:35.623Z,427.64
2022-08-09T11:28:03.222Z,431.21
2022-08-09T11:28:38.686Z,441.99
2022-08-09T11:30:01.164Z,450.59
2022-08-09T11:30:36.380Z,454.86
2022-08-09T11:31:36.781Z,452.71
2022-08-09T11:32:34.634Z,451.50
2022-08-09T11:33:34.543Z,446.99
2022-08-09T11:34:34.944Z,452.11
2022-08-09T11:35:35.247Z,441.99
2022-08-09T11:36:36.834Z,443.16
2022-08-09T11:37:41.412Z,443.45
2022-08-09T11:38:35.502Z,448.48
2022-08-09T11:39:38.562Z,457.34
2022-08-09T11:40:34.464Z,456.40
2022-08-09T11:41:37.500Z,449.68
2022-08-09T11:42:34.816Z,455.79
2022-08-09T11:43:34.428Z,452.41
2022-08-09T11:44:34.445Z,449.68
2022-08-09T11:45:42.802Z,455.79
2022-08-09T11:46:35.390Z,462.05
2022-08-09T11:47:35.087Z,461.42
2022-08-09T11:48:36.009Z,457.65
2022-08-09T11:49:42.698Z,457.96
2022-08-09T11:50:52.956Z,460.16
2022-08-09T11:52:49.441Z,460.79
2022-08-09T11:53:11.422Z,460.47
2022-08-09T11:53:58.485Z,472.45
2022-08-09T11:54:35.569Z,483.68
2022-08-09T11:55:51.469Z,487.54
2022-08-09T11:56:42.437Z,477.83
2022-08-09T11:57:47.535Z,477.15
2022-08-09T11:58:35.272Z,473.79
2022-08-09T11:59:34.266Z,468.50
2022-08-09T12:00:34.233Z,470.47
2022-08-09T12:01:37.698Z,478.17
2022-08-09T12:02:39.715Z,484.38
2022-08-09T12:03:55.351Z,482.98
2022-08-09T12:04:37.562Z,472.45
2022-08-09T12:05:37.905Z,470.14
2022-08-09T12:06:35.478Z,461.10
2022-08-09T12:07:41.477Z,468.83
2022-08-09T12:08:35.144Z,470.80
2022-08-09T12:09:34.221Z,471.46
2022-08-09T12:10:39.340Z,469.15
2022-08-09T12:11:44.685Z,470.80
2022-08-09T12:12:35.102Z,471.13
2022-08-09T12:14:08.351Z,465.58
2022-08-09T12:14:37.183Z,471.13
2022-08-09T12:15:50.107Z,475.46
2022-08-09T12:16:38.118Z,478.51
2022-08-09T12:17:44.526Z,473.45
2022-08-09T12:18:35.034Z,466.22
2022-08-09T12:19:34.036Z,473.45
2022-08-09T12:20:34.037Z,480.56
2022-08-09T12:21:38.678Z,476.14
2022-08-09T12:22:35.184Z,478.17
2022-08-09T12:23:58.678Z,476.81
2022-08-09T12:24:35.023Z,485.07
2022-08-09T12:25:37.322Z,487.18
2022-08-09T12:26:33.958Z,496.18
2022-08-09T12:29:09.880Z,500.24
2022-08-09T12:29:13.078Z,496.91
2022-08-09T12:29:51.482Z,496.18
2022-08-09T12:30:38.672Z,496.91
2022-08-09T12:31:58.554Z,493.99
2022-08-09T12:32:35.125Z,498.02
2022-08-09T12:33:51.355Z,498.02
2022-08-09T12:34:34.862Z,499.87
2022-08-09T12:35:40.244Z,498.76
2022-08-09T12:36:36.233Z,499.87
2022-08-09T12:37:33.824Z,503.24
2022-08-09T12:38:38.171Z,502.49
2022-08-09T12:39:33.834Z,510.51
2022-08-09T12:40:33.798Z,510.12
2022-08-09T12:41:39.608Z,505.89
2022-08-09T12:42:35.056Z,504.00
2022-08-09T12:44:04.891Z,508.19
2022-08-09T12:44:37.347Z,510.12